createdAt,value
2019-01-14T00:01:32.417Z,8.27
2019-01-14T00:04:01.553Z,9.27
2019-01-14T00:06:30.638Z,7.50
2019-01-14T00:09:00.009Z,6.17
2019-01-14T00:11:29.099Z,5.60
2019-01-14T00:13:58.315Z,4.17
2019-01-14T00:16:27.403Z,6.33
2019-01-14T00:18:56.534Z,5.10
2019-01-14T00:21:25.667Z,9.07
2019-01-14T00:23:54.757Z,5.80
2019-01-14T00:26:23.881Z,5.37
2019-01-14T00:28:52.969Z,6.47
2019-01-14T00:31:22.111Z,7.40
2019-01-14T00:33:52.296Z,7.23
2019-01-14T00:36:21.445Z,6.67
2019-01-14T00:38:50.540Z,6.77
2019-01-14T00:41:19.666Z,6.10
2019-01-14T00:43:48.760Z,4.60
2019-01-14T00:46:17.894Z,4.43
2019-01-14T00:48:47.012Z,3.00
2019-01-14T00:51:16.269Z,6.70
2019-01-14T00:53:45.318Z,4.03
2019-01-14T00:56:14.527Z,3.97
2019-01-14T00:58:43.661Z,7.57
2019-01-14T01:01:12.814Z,9.80
2019-01-14T01:03:41.979Z,8.50
2019-01-14T01:06:11.199Z,8.27
2019-01-14T01:08:40.554Z,5.17
2019-01-14T01:11:09.680Z,5.83
2019-01-14T01:13:38.782Z,5.60
2019-01-14T01:16:07.912Z,5.43
2019-01-14T01:18:37.048Z,8.30
2019-01-14T01:21:06.201Z,6.37
2019-01-14T01:23:35.830Z,6.23
2019-01-14T01:26:04.969Z,6.67
2019-01-14T01:28:34.080Z,7.53
2019-01-14T01:31:03.207Z,7.70
2019-01-14T01:33:32.291Z,6.27
2019-01-14T01:36:01.420Z,5.37
2019-01-14T01:38:30.432Z,4.13
2019-01-14T01:40:59.550Z,6.33
2019-01-14T01:43:28.683Z,6.77
2019-01-14T01:45:57.800Z,7.53
2019-01-14T01:48:26.894Z,4.53
2019-01-14T01:50:56.080Z,8.90
2019-01-14T01:53:25.157Z,5.97
2019-01-14T01:55:54.350Z,8.17
2019-01-14T01:58:24.148Z,8.13
2019-01-14T02:00:53.231Z,9.63
2019-01-14T02:03:22.352Z,6.53
2019-01-14T02:05:51.462Z,8.67
2019-01-14T02:08:20.619Z,8.27
2019-01-14T02:10:49.734Z,8.50
2019-01-14T02:13:18.855Z,10.73
2019-01-14T02:15:47.982Z,8.20
2019-01-14T02:18:17.073Z,7.40
2019-01-14T02:20:46.220Z,9.83
2019-01-14T02:23:15.332Z,10.63
2019-01-14T02:25:44.413Z,7.10
2019-01-14T02:28:13.632Z,11.63
2019-01-14T02:30:42.723Z,13.30
2019-01-14T02:33:11.861Z,10.40
2019-01-14T02:35:40.905Z,9.40
2019-01-14T02:38:10.037Z,11.23
2019-01-14T02:40:39.178Z,12.43
2019-01-14T02:43:08.302Z,10.17
2019-01-14T02:45:37.727Z,12.43
2019-01-14T02:48:06.848Z,13.37
2019-01-14T02:50:35.937Z,9.57
2019-01-14T02:53:05.066Z,9.97
2019-01-14T02:55:34.160Z,9.17
2019-01-14T02:58:03.299Z,13.97
2019-01-14T03:00:32.428Z,14.03
2019-01-14T03:03:01.551Z,15.83
2019-01-14T03:05:30.682Z,10.00
2019-01-14T03:07:59.778Z,14.73
2019-01-14T03:10:28.931Z,13.57
2019-01-14T03:12:58.064Z,12.33
2019-01-14T03:15:27.170Z,17.23
2019-01-14T03:17:56.265Z,13.10
2019-01-14T03:20:25.382Z,12.37
2019-01-14T03:22:54.495Z,12.53
2019-01-14T03:25:23.644Z,13.27
2019-01-14T03:27:52.749Z,10.47
2019-01-14T03:30:21.850Z,14.37
2019-01-14T03:32:50.958Z,17.37
2019-01-14T03:35:20.476Z,14.10
2019-01-14T03:37:49.562Z,13.40
2019-01-14T03:40:19.205Z,10.67
2019-01-14T03:42:48.294Z,12.33
2019-01-14T03:45:17.663Z,15.97
2019-01-14T03:47:46.747Z,14.63
2019-01-14T03:50:19.246Z,13.37
2019-01-14T03:52:48.366Z,18.33
2019-01-14T03:55:17.685Z,17.73
2019-01-14T03:57:46.771Z,20.00
2019-01-14T04:00:17.100Z,17.57
2019-01-14T04:02:46.527Z,13.50
2019-01-14T04:05:15.759Z,14.43
2019-01-14T04:07:44.956Z,13.43
2019-01-14T04:10:15.730Z,20.43
2019-01-14T04:12:45.122Z,14.70
2019-01-14T04:15:16.383Z,16.30
2019-01-14T04:17:45.861Z,12.73
2019-01-14T04:20:16.282Z,14.20
2019-01-14T04:22:45.705Z,18.87
2019-01-14T04:25:14.855Z,17.03
2019-01-14T04:27:43.932Z,12.90
2019-01-14T04:30:15.942Z,13.73
2019-01-14T04:32:45.022Z,17.90
2019-01-14T04:35:15.941Z,12.80
2019-01-14T04:37:45.152Z,14.40
2019-01-14T04:40:14.856Z,22.23
2019-01-14T04:42:44.230Z,15.80
2019-01-14T04:45:13.669Z,20.43
2019-01-14T04:47:42.777Z,16.03
2019-01-14T04:50:15.171Z,20.40
2019-01-14T04:52:44.273Z,15.53
2019-01-14T04:55:13.458Z,18.13
2019-01-14T04:57:42.538Z,16.50
2019-01-14T05:00:22.902Z,14.27
2019-01-14T05:02:52.089Z,17.30
2019-01-14T05:05:21.259Z,13.93
2019-01-14T05:07:50.461Z,14.90
2019-01-14T05:10:19.955Z,15.27
2019-01-14T05:12:49.348Z,21.93
2019-01-14T05:15:18.479Z,14.57
2019-01-14T05:17:47.602Z,10.60
2019-01-14T05:20:34.839Z,18.83
2019-01-14T05:23:04.161Z,14.50
2019-01-14T05:25:33.716Z,23.73
2019-01-14T05:28:02.809Z,14.70
2019-01-14T05:30:32.267Z,10.63
2019-01-14T05:33:01.354Z,16.63
2019-01-14T05:35:30.482Z,11.03
2019-01-14T05:37:59.583Z,13.10
2019-01-14T05:40:28.738Z,13.00
2019-01-14T05:42:57.849Z,15.20
2019-01-14T05:45:26.941Z,16.83
2019-01-14T05:47:56.058Z,14.40
2019-01-14T05:50:25.199Z,13.53
2019-01-14T05:52:54.608Z,10.87
2019-01-14T05:55:23.724Z,19.33
2019-01-14T05:57:53.048Z,15.30
2019-01-14T06:00:36.857Z,16.40
2019-01-14T06:03:06.528Z,12.43
2019-01-14T06:05:37.396Z,10.77
2019-01-14T06:08:06.552Z,15.50
2019-01-14T06:10:35.635Z,13.37
2019-01-14T06:13:04.766Z,18.27
2019-01-14T06:15:33.864Z,12.30
2019-01-14T06:18:02.990Z,13.90
2019-01-14T06:20:32.592Z,15.10
2019-01-14T06:23:02.643Z,16.70
2019-01-14T06:25:31.809Z,10.77
2019-01-14T06:28:00.960Z,13.13
2019-01-14T06:30:30.894Z,11.80
2019-01-14T06:33:00.118Z,10.83
2019-01-14T06:35:29.723Z,16.90
2019-01-14T06:37:58.943Z,17.00
2019-01-14T06:40:28.043Z,13.60
2019-01-14T06:42:58.169Z,15.07
2019-01-14T06:45:27.276Z,10.23
2019-01-14T06:47:56.425Z,10.97
2019-01-14T06:50:25.524Z,13.80
2019-01-14T06:52:54.684Z,14.53
2019-01-14T06:55:24.001Z,16.07
2019-01-14T06:57:53.181Z,17.53
2019-01-14T07:00:24.612Z,11.57
2019-01-14T07:02:54.408Z,14.00
2019-01-14T07:05:23.965Z,11.30
2019-01-14T07:07:59.456Z,13.50
2019-01-14T07:10:26.825Z,9.97
2019-01-14T07:12:56.053Z,11.90
2019-01-14T07:15:25.213Z,18.07
2019-01-14T07:17:54.336Z,11.90
2019-01-14T07:20:23.639Z,11.37
2019-01-14T07:22:52.755Z,10.03
2019-01-14T07:25:21.861Z,13.43
2019-01-14T07:27:50.994Z,16.80
2019-01-14T07:30:25.310Z,10.93
2019-01-14T07:32:54.532Z,10.43
2019-01-14T07:35:23.619Z,15.60
2019-01-14T07:37:52.865Z,12.17
2019-01-14T07:40:22.276Z,16.43
2019-01-14T07:42:51.409Z,13.43
2019-01-14T07:45:20.723Z,12.03
2019-01-14T07:47:49.946Z,12.00
2019-01-14T07:50:19.676Z,12.17
2019-01-14T07:52:49.515Z,9.77
2019-01-14T07:55:18.695Z,12.60
2019-01-14T07:57:47.981Z,15.77
2019-01-14T08:00:19.923Z,11.07
2019-01-14T08:02:50.479Z,17.07
2019-01-14T08:05:21.227Z,11.53
2019-01-14T08:07:51.746Z,13.87
2019-01-14T08:10:21.931Z,14.57
2019-01-14T08:12:51.088Z,11.47
2019-01-14T08:15:22.130Z,12.40
2019-01-14T08:17:51.350Z,7.47
2019-01-14T08:20:20.497Z,12.17
2019-01-14T08:22:49.626Z,9.10
2019-01-14T08:25:18.725Z,16.10
2019-01-14T08:27:47.901Z,13.27
2019-01-14T08:30:24.051Z,9.23
2019-01-14T08:32:53.163Z,6.83
2019-01-14T08:35:22.368Z,8.90
2019-01-14T08:37:51.554Z,13.83
2019-01-14T08:40:20.655Z,11.77
2019-01-14T08:42:50.034Z,12.40
2019-01-14T08:45:19.227Z,9.43
2019-01-14T08:47:48.315Z,7.13
2019-01-14T08:50:21.483Z,10.07
2019-01-14T08:52:51.427Z,10.70
2019-01-14T08:55:20.652Z,13.73
2019-01-14T08:57:54.448Z,11.80
2019-01-14T09:00:22.938Z,7.07
2019-01-14T09:02:52.218Z,9.50
2019-01-14T09:05:21.423Z,7.97
2019-01-14T09:07:50.601Z,7.20
2019-01-14T09:10:23.534Z,9.63
2019-01-14T09:12:52.766Z,7.90
2019-01-14T09:15:22.036Z,9.13
2019-01-14T09:17:51.158Z,11.97
2019-01-14T09:20:22.279Z,10.80
2019-01-14T09:22:51.596Z,7.20
2019-01-14T09:25:20.713Z,8.27
2019-01-14T09:27:49.846Z,8.73
2019-01-14T09:30:36.972Z,7.67
2019-01-14T09:33:06.125Z,11.83
2019-01-14T09:35:35.285Z,6.27
2019-01-14T09:38:04.629Z,12.77
2019-01-14T09:40:33.773Z,9.47
2019-01-14T09:43:03.024Z,11.00
2019-01-14T09:45:32.117Z,8.57
2019-01-14T09:48:01.288Z,12.70
2019-01-14T09:50:30.383Z,5.97
2019-01-14T09:52:59.476Z,6.77
2019-01-14T09:55:28.697Z,5.87
2019-01-14T09:57:57.831Z,5.23
2019-01-14T10:00:26.925Z,6.33
2019-01-14T10:02:56.061Z,4.40
2019-01-14T10:05:25.212Z,2.73
2019-01-14T10:07:54.352Z,4.93
2019-01-14T10:10:23.470Z,6.07
2019-01-14T10:12:52.572Z,8.87
2019-01-14T10:15:23.974Z,6.13
2019-01-14T10:17:59.390Z,3.70
2019-01-14T10:20:28.778Z,7.67
2019-01-14T10:22:58.579Z,5.40
2019-01-14T10:25:27.731Z,5.67
2019-01-14T10:27:56.868Z,6.10
2019-01-14T10:30:25.958Z,8.13
2019-01-14T10:32:55.087Z,7.13
2019-01-14T10:35:24.198Z,7.20
2019-01-14T10:37:53.311Z,7.70
2019-01-14T10:40:22.431Z,4.50
2019-01-14T10:42:51.579Z,10.53
2019-01-14T10:45:22.336Z,7.87
2019-01-14T10:47:51.831Z,7.40
2019-01-14T10:50:21.239Z,4.53
2019-01-14T10:52:50.379Z,4.57
2019-01-14T10:55:19.536Z,4.17
2019-01-14T10:57:48.680Z,9.20
2019-01-14T11:00:23.135Z,6.33
2019-01-14T11:02:52.786Z,6.40
2019-01-14T11:05:24.611Z,8.60
2019-01-14T11:07:53.733Z,10.27
2019-01-14T11:10:22.930Z,5.57
2019-01-14T11:12:52.146Z,3.47
2019-01-14T11:15:21.456Z,4.87
2019-01-14T11:17:50.584Z,5.17
2019-01-14T11:20:24.860Z,6.67
2019-01-14T11:22:54.191Z,6.60
2019-01-14T11:25:23.356Z,4.37
2019-01-14T11:27:52.455Z,5.63
2019-01-14T11:30:24.209Z,4.07
2019-01-14T11:32:53.308Z,8.17
2019-01-14T11:35:22.400Z,5.03
2019-01-14T11:37:51.536Z,4.83
2019-01-14T11:40:23.025Z,6.03
2019-01-14T11:42:52.156Z,3.53
2019-01-14T11:45:21.238Z,10.50
2019-01-14T11:47:50.332Z,5.80
2019-01-14T11:50:19.463Z,6.63
2019-01-14T11:52:48.766Z,8.00
2019-01-14T11:55:17.800Z,7.90
2019-01-14T11:57:46.987Z,6.27
2019-01-14T12:00:18.746Z,6.00
2019-01-14T12:02:57.944Z,5.50
2019-01-14T12:05:27.093Z,6.60
2019-01-14T12:07:56.215Z,12.77
2019-01-14T12:10:25.327Z,8.20
2019-01-14T12:12:54.444Z,15.97
2019-01-14T12:15:25.797Z,9.00
2019-01-14T12:17:54.885Z,6.27
2019-01-14T12:20:24.003Z,6.23
2019-01-14T12:22:53.083Z,5.07
2019-01-14T12:25:22.222Z,7.90
2019-01-14T12:27:51.596Z,8.97
2019-01-14T12:30:28.596Z,9.33
2019-01-14T12:32:57.739Z,8.77
2019-01-14T12:35:26.857Z,6.57
2019-01-14T12:37:56.323Z,8.90
2019-01-14T12:40:25.423Z,7.40
2019-01-14T12:42:54.530Z,4.80
2019-01-14T12:45:24.217Z,8.10
2019-01-14T12:47:53.576Z,7.17
2019-01-14T12:50:22.681Z,8.40
2019-01-14T12:52:51.767Z,6.70
2019-01-14T12:55:21.374Z,11.07
2019-01-14T12:57:50.528Z,6.70
2019-01-14T13:00:21.982Z,6.40
2019-01-14T13:02:51.512Z,12.17
2019-01-14T13:05:21.231Z,10.47
2019-01-14T13:07:50.517Z,9.13
2019-01-14T13:10:19.606Z,9.17
2019-01-14T13:12:48.814Z,10.10
2019-01-14T13:15:20.576Z,8.07
2019-01-14T13:17:50.031Z,5.07
2019-01-14T13:20:19.249Z,8.53
2019-01-14T13:22:48.359Z,15.13
2019-01-14T13:25:17.587Z,18.13
2019-01-14T13:27:47.070Z,10.40
2019-01-14T13:30:24.377Z,11.40
2019-01-14T13:32:53.813Z,5.53
2019-01-14T13:35:22.996Z,4.00
2019-01-14T13:37:52.473Z,9.40
2019-01-14T13:40:21.596Z,14.37
2019-01-14T13:42:50.689Z,20.90
2019-01-14T13:45:20.972Z,4.17
2019-01-14T13:47:50.533Z,8.50
2019-01-14T13:50:21.721Z,8.27
2019-01-14T13:52:50.807Z,9.37
2019-01-14T13:55:21.743Z,7.77
2019-01-14T13:57:52.370Z,5.53
2019-01-14T14:00:23.353Z,6.87
2019-01-14T14:02:53.016Z,4.30
2019-01-14T14:05:22.152Z,5.00
2019-01-14T14:07:51.551Z,4.87
2019-01-14T14:10:31.388Z,7.10
2019-01-14T14:13:00.611Z,8.43
2019-01-14T14:15:29.816Z,6.73
2019-01-14T14:17:58.988Z,5.93
2019-01-14T14:20:28.122Z,4.90
2019-01-14T14:22:57.241Z,7.83
2019-01-14T14:25:26.416Z,10.43
2019-01-14T14:27:55.486Z,4.77
2019-01-14T14:30:27.796Z,9.37
2019-01-14T14:32:56.919Z,10.23
2019-01-14T14:35:26.005Z,9.17
2019-01-14T14:38:00.966Z,9.43
2019-01-14T14:40:26.061Z,6.63
2019-01-14T14:42:55.475Z,9.57
2019-01-14T14:45:24.593Z,14.90
2019-01-14T14:47:53.675Z,7.17
2019-01-14T14:50:22.810Z,6.83
2019-01-14T14:52:51.944Z,5.07
2019-01-14T14:55:21.142Z,5.67
2019-01-14T14:57:50.593Z,4.70
2019-01-14T15:00:21.083Z,7.33
2019-01-14T15:02:50.194Z,3.77
2019-01-14T15:05:19.835Z,7.00
2019-01-14T15:07:48.932Z,4.97
2019-01-14T15:10:19.891Z,3.77
2019-01-14T15:12:49.053Z,3.73
2019-01-14T15:15:20.845Z,9.73
2019-01-14T15:17:50.020Z,10.33
2019-01-14T15:20:20.954Z,3.47
2019-01-14T15:22:49.994Z,4.57
2019-01-14T15:25:19.121Z,6.77
2019-01-14T15:27:48.236Z,2.80
2019-01-14T15:30:23.378Z,1.20
2019-01-14T15:32:52.487Z,4.27
2019-01-14T15:35:21.867Z,3.67
2019-01-14T15:37:50.992Z,2.90
2019-01-14T15:40:20.289Z,4.03
2019-01-14T15:42:49.524Z,5.63
2019-01-14T15:45:19.274Z,5.53
2019-01-14T15:47:48.471Z,5.67
2019-01-14T15:50:17.671Z,7.53
2019-01-14T15:52:46.956Z,3.40
2019-01-14T15:55:19.020Z,5.10
2019-01-14T15:57:48.324Z,4.47
2019-01-14T16:00:18.349Z,4.80
2019-01-14T16:02:47.779Z,3.57
2019-01-14T16:05:17.127Z,4.67
2019-01-14T16:07:46.242Z,3.27
2019-01-14T16:10:17.508Z,5.63
2019-01-14T16:12:46.906Z,3.40
2019-01-14T16:15:16.222Z,4.43
2019-01-14T16:17:46.467Z,5.90
2019-01-14T16:20:17.709Z,5.20
2019-01-14T16:22:47.104Z,7.60
2019-01-14T16:25:16.253Z,4.60
2019-01-14T16:27:45.311Z,6.50
2019-01-14T16:30:16.890Z,6.50
2019-01-14T16:32:45.972Z,8.00
2019-01-14T16:35:15.173Z,10.67
2019-01-14T16:37:44.368Z,5.97
2019-01-14T16:40:17.895Z,3.23
2019-01-14T16:42:44.748Z,7.90
2019-01-14T16:45:16.483Z,7.70
2019-01-14T16:47:45.579Z,4.23
2019-01-14T16:50:15.277Z,3.47
2019-01-14T16:52:44.374Z,4.20
2019-01-14T16:55:15.156Z,6.97
2019-01-14T16:57:44.350Z,8.83
2019-01-14T17:00:16.511Z,5.53
2019-01-14T17:02:45.660Z,6.33
2019-01-14T17:05:15.256Z,8.73
2019-01-14T17:07:44.458Z,11.07
2019-01-14T17:10:14.782Z,7.57
2019-01-14T17:12:43.981Z,4.27
2019-01-14T17:15:13.717Z,6.00
2019-01-14T17:17:42.964Z,7.10
2019-01-14T17:20:15.473Z,9.50
2019-01-14T17:22:44.903Z,5.23
2019-01-14T17:25:14.647Z,9.67
2019-01-14T17:27:45.218Z,7.17
2019-01-14T17:30:15.321Z,7.07
2019-01-14T17:32:44.450Z,4.73
2019-01-14T17:35:13.858Z,6.60
2019-01-14T17:37:43.292Z,6.50
2019-01-14T17:40:17.424Z,3.93
2019-01-14T17:42:46.712Z,2.83
2019-01-14T17:45:15.886Z,6.50
2019-01-14T17:47:45.245Z,5.70
2019-01-14T17:50:16.731Z,6.83
2019-01-14T17:52:45.833Z,5.90
2019-01-14T17:55:15.281Z,5.03
2019-01-14T17:57:44.387Z,4.83
2019-01-14T18:00:17.079Z,3.30
2019-01-14T18:02:46.277Z,4.37
2019-01-14T18:05:15.407Z,6.50
2019-01-14T18:07:44.519Z,5.23
2019-01-14T18:10:15.230Z,6.30
2019-01-14T18:12:44.317Z,3.53
2019-01-14T18:15:23.835Z,7.20
2019-01-14T18:17:52.916Z,5.53
2019-01-14T18:20:22.030Z,5.50
2019-01-14T18:22:51.594Z,6.50
2019-01-14T18:25:20.667Z,5.83
2019-01-14T18:27:49.748Z,5.17
2019-01-14T18:30:20.662Z,5.53
2019-01-14T18:32:49.810Z,4.50
2019-01-14T18:35:18.998Z,9.83
2019-01-14T18:37:48.360Z,4.43
2019-01-14T18:40:19.002Z,9.30
2019-01-14T18:42:48.581Z,7.90
2019-01-14T18:45:19.825Z,9.43
2019-01-14T18:47:49.434Z,7.87
2019-01-14T18:50:20.823Z,15.47
2019-01-14T18:52:50.255Z,12.03
2019-01-14T18:55:19.567Z,16.07
2019-01-14T18:57:49.038Z,7.70
2019-01-14T19:00:20.432Z,26.43
2019-01-14T19:02:49.847Z,9.67
2019-01-14T19:05:20.200Z,10.63
2019-01-14T19:07:51.319Z,9.07
2019-01-14T19:10:20.542Z,6.87
2019-01-14T19:12:49.667Z,5.53
2019-01-14T19:15:20.758Z,7.43
2019-01-14T19:17:50.891Z,10.60
2019-01-14T19:20:25.594Z,8.43
2019-01-14T19:22:55.717Z,10.20
2019-01-14T19:25:26.991Z,8.63
2019-01-14T19:27:56.310Z,8.53
2019-01-14T19:30:25.948Z,7.53
2019-01-14T19:32:55.803Z,7.53
2019-01-14T19:35:25.248Z,7.10
2019-01-14T19:37:54.437Z,12.27
2019-01-14T19:40:23.777Z,10.93
2019-01-14T19:42:53.550Z,11.73
2019-01-14T19:45:23.659Z,8.23
2019-01-14T19:47:53.304Z,7.17
2019-01-14T19:50:24.953Z,9.13
2019-01-14T19:52:56.241Z,9.25
2019-01-14T19:55:26.596Z,8.73
2019-01-14T19:57:55.833Z,6.67
2019-01-14T20:00:28.290Z,9.17
2019-01-14T20:02:57.743Z,10.67
2019-01-14T20:05:26.993Z,9.33
2019-01-14T20:07:56.570Z,10.83
2019-01-14T20:10:25.723Z,10.40
2019-01-14T20:12:55.854Z,12.40
2019-01-14T20:15:25.333Z,7.60
2019-01-14T20:17:54.790Z,7.47
2019-01-14T20:20:25.021Z,6.90
2019-01-14T20:22:54.480Z,7.07
2019-01-14T20:25:23.567Z,6.40
2019-01-14T20:27:52.787Z,11.23
2019-01-14T20:30:23.753Z,7.30
2019-01-14T20:32:53.260Z,10.00
2019-01-14T20:35:22.374Z,12.57
2019-01-14T20:37:51.780Z,12.33
2019-01-14T20:40:29.101Z,9.33
2019-01-14T20:42:58.506Z,8.97
2019-01-14T20:45:28.193Z,16.10
2019-01-14T20:47:58.321Z,12.53
2019-01-14T20:50:28.405Z,15.33
2019-01-14T20:52:57.533Z,10.50
2019-01-14T20:55:26.676Z,14.73
2019-01-14T20:57:56.427Z,15.20
2019-01-14T21:00:25.970Z,9.67
2019-01-14T21:02:55.192Z,6.97
2019-01-14T21:05:25.575Z,14.43
2019-01-14T21:07:55.534Z,20.97
2019-01-14T21:10:24.881Z,13.17
2019-01-14T21:12:56.549Z,13.83
2019-01-14T21:15:25.834Z,11.47
2019-01-14T21:17:55.052Z,14.80
2019-01-14T21:20:25.653Z,10.80
2019-01-14T21:22:55.873Z,16.50
2019-01-14T21:25:25.109Z,11.77
2019-01-14T21:27:54.306Z,9.37
2019-01-14T21:30:25.716Z,10.43
2019-01-14T21:32:54.932Z,8.70
2019-01-14T21:35:24.521Z,11.63
2019-01-14T21:37:55.798Z,8.63
2019-01-14T21:40:25.022Z,10.77
2019-01-14T21:42:54.338Z,11.67
2019-01-14T21:45:23.704Z,8.63
2019-01-14T21:47:52.834Z,10.67
2019-01-14T21:50:22.070Z,8.97
2019-01-14T21:52:51.281Z,11.10
2019-01-14T21:55:22.333Z,10.50
2019-01-14T21:57:51.457Z,10.03
2019-01-14T22:00:22.467Z,9.50
2019-01-14T22:02:51.597Z,12.67
2019-01-14T22:05:20.727Z,9.90
2019-01-14T22:07:49.961Z,11.13
2019-01-14T22:10:21.377Z,15.97
2019-01-14T22:12:50.505Z,12.50
2019-01-14T22:15:19.593Z,11.67
2019-01-14T22:17:48.790Z,11.77
2019-01-14T22:20:20.538Z,13.87
2019-01-14T22:22:49.710Z,10.23
2019-01-14T22:25:18.845Z,11.27
2019-01-14T22:27:48.010Z,10.97
2019-01-14T22:30:19.627Z,9.37
2019-01-14T22:32:48.931Z,6.10
2019-01-14T22:35:18.042Z,10.07
2019-01-14T22:37:47.558Z,12.60
2019-01-14T22:40:16.860Z,12.03
2019-01-14T22:42:45.970Z,10.00
2019-01-14T22:45:15.357Z,10.63
2019-01-14T22:47:44.467Z,8.67
2019-01-14T22:50:15.282Z,10.00
2019-01-14T22:52:44.450Z,13.80
2019-01-14T22:55:13.798Z,10.33
2019-01-14T22:57:42.945Z,12.37
2019-01-14T23:00:27.748Z,17.13
2019-01-14T23:03:00.200Z,10.63
2019-01-14T23:05:29.303Z,11.80
2019-01-14T23:07:58.344Z,11.03
2019-01-14T23:10:27.477Z,8.77
2019-01-14T23:12:56.640Z,10.60
2019-01-14T23:15:25.742Z,14.90
2019-01-14T23:17:54.871Z,11.67
2019-01-14T23:20:24.031Z,15.30
2019-01-14T23:22:53.458Z,9.93
2019-01-14T23:25:22.599Z,9.10
2019-01-14T23:27:51.721Z,7.30
2019-01-14T23:30:20.860Z,9.97
2019-01-14T23:32:49.992Z,13.77
2019-01-14T23:35:19.116Z,8.70
2019-01-14T23:37:48.254Z,13.07
2019-01-14T23:40:17.344Z,8.30
2019-01-14T23:42:46.533Z,13.10
2019-01-14T23:45:15.638Z,13.37
2019-01-14T23:47:44.769Z,9.97
2019-01-14T23:50:15.331Z,11.20
2019-01-14T23:52:44.445Z,12.00
2019-01-14T23:55:13.584Z,7.70
2019-01-14T23:57:43.060Z,11.23
